Terminal Aerodrome Forecast
Issued by NWS

Home | Current Version | Previous Version | Text Only | Print | Product List | Glossary On
Versions: 1 2 3 4 5 6 7 8 9 10 11 12 13 14 15 16 17 18 19 20 21 22 23 24 25 26
000
FTUS45 KSLC 250543
TAFLGU
TAF
KLGU 250543Z 2506/2606 VRB06KT P6SM SCT100 BKN120
     FM251600 22005KT P6SM -SHRA SCT080 BKN100
     FM252100 29008KT P6SM VCSH SCT120
     FM260300 13007KT P6SM SCT100=

USA.gov is the U.S. government's official web portal to all federal, state and local government web resources and services.